sensor_id;sensor_type;location;lat;lon;timestamp;pressure;altitude;pressure_sealevel;temperature;humidity
13867;BME280;7003;46.982;15.248;2023-04-07T00:02:25;97126.47;;;-0.47;100.00
13867;BME280;7003;46.982;15.248;2023-04-07T00:04:53;97123.06;;;-0.48;100.00
13867;BME280;7003;46.982;15.248;2023-04-07T00:07:22;97121.97;;;-0.52;100.00
13867;BME280;7003;46.982;15.248;2023-04-07T00:09:49;97124.03;;;-0.59;100.00
13867;BME280;7003;46.982;15.248;2023-04-07T00:12:16;97117.00;;;-0.53;100.00
13867;BME280;7003;46.982;15.248;2023-04-07T00:14:43;97128.31;;;-0.38;100.00
13867;BME280;7003;46.982;15.248;2023-04-07T00:17:10;97123.31;;;-0.44;100.00
13867;BME280;7003;46.982;15.248;2023-04-07T00:19:39;97127.66;;;-0.65;100.00
13867;BME280;7003;46.982;15.248;2023-04-07T00:22:09;97118.50;;;-0.67;100.00
13867;BME280;7003;46.982;15.248;2023-04-07T00:24:38;97116.75;;;-0.52;100.00
13867;BME280;7003;46.982;15.248;2023-04-07T00:27:07;97118.25;;;-0.66;100.00
13867;BME280;7003;46.982;15.248;2023-04-07T00:29:35;97118.81;;;-0.54;100.00
13867;BME280;7003;46.982;15.248;2023-04-07T00:32:03;97118.75;;;-0.69;100.00
13867;BME280;7003;46.982;15.248;2023-04-07T00:34:30;97123.47;;;-0.71;100.00
13867;BME280;7003;46.982;15.248;2023-04-07T00:36:59;97116.28;;;-0.91;100.00
13867;BME280;7003;46.982;15.248;2023-04-07T00:39:26;97111.28;;;-0.97;100.00
13867;BME280;7003;46.982;15.248;2023-04-07T00:41:55;97117.28;;;-1.02;100.00
13867;BME280;7003;46.982;15.248;2023-04-07T00:44:23;97109.75;;;-0.93;100.00
13867;BME280;7003;46.982;15.248;2023-04-07T00:46:52;97111.34;;;-0.87;100.00
13867;BME280;7003;46.982;15.248;2023-04-07T00:49:21;97103.53;;;-0.87;100.00
13867;BME280;7003;46.982;15.248;2023-04-07T00:51:48;97107.72;;;-1.23;100.00
13867;BME280;7003;46.982;15.248;2023-04-07T00:54:20;97099.09;;;-1.24;100.00
13867;BME280;7003;46.982;15.248;2023-04-07T00:56:48;97095.53;;;-1.07;100.00
13867;BME280;7003;46.982;15.248;2023-04-07T00:59:15;97092.78;;;-0.91;100.00
13867;BME280;7003;46.982;15.248;2023-04-07T01:01:48;97104.72;;;-1.00;100.00
13867;BME280;7003;46.982;15.248;2023-04-07T01:04:23;97108.91;;;-0.99;100.00
13867;BME280;7003;46.982;15.248;2023-04-07T01:07:00;97094.47;;;-1.17;100.00
13867;BME280;7003;46.982;15.248;2023-04-07T01:09:37;97101.53;;;-1.12;100.00
13867;BME280;7003;46.982;15.248;2023-04-07T01:12:15;97096.00;;;-1.16;100.00
13867;BME280;7003;46.982;15.248;2023-04-07T01:14:48;97088.06;;;-1.31;100.00
13867;BME280;7003;46.982;15.248;2023-04-07T01:17:18;97092.81;;;-1.28;100.00
13867;BME280;7003;46.982;15.248;2023-04-07T01:19:50;97086.09;;;-1.19;100.00
13867;BME280;7003;46.982;15.248;2023-04-07T01:22:25;97084.50;;;-1.20;100.00
13867;BME280;7003;46.982;15.248;2023-04-07T01:25:17;97079.78;;;-1.23;100.00
13867;BME280;7003;46.982;15.248;2023-04-07T01:27:55;97086.13;;;-1.13;100.00
13867;BME280;7003;46.982;15.248;2023-04-07T01:30:28;97081.41;;;-1.17;100.00
13867;BME280;7003;46.982;15.248;2023-04-07T01:32:58;97074.16;;;-1.04;100.00
13867;BME280;7003;46.982;15.248;2023-04-07T01:35:28;97087.78;;;-0.97;100.00
13867;BME280;7003;46.982;15.248;2023-04-07T01:37:59;97081.44;;;-1.11;100.00
13867;BME280;7003;46.982;15.248;2023-04-07T01:40:32;97073.59;;;-1.11;100.00
13867;BME280;7003;46.982;15.248;2023-04-07T01:43:02;97085.09;;;-1.12;100.00
13867;BME280;7003;46.982;15.248;2023-04-07T01:45:35;97079.97;;;-0.97;100.00
13867;BME280;7003;46.982;15.248;2023-04-07T01:48:21;97072.28;;;-1.14;100.00
13867;BME280;7003;46.982;15.248;2023-04-07T01:51:09;97076.31;;;-0.96;100.00
13867;BME280;7003;46.982;15.248;2023-04-07T01:53:45;97074.72;;;-1.02;100.00
13867;BME280;7003;46.982;15.248;2023-04-07T01:56:15;97072.03;;;-1.12;100.00
13867;BME280;7003;46.982;15.248;2023-04-07T01:59:00;97066.31;;;-1.09;100.00
13867;BME280;7003;46.982;15.248;2023-04-07T02:01:29;97063.69;;;-1.46;100.00
13867;BME280;7003;46.982;15.248;2023-04-07T02:04:03;97083.28;;;-1.44;100.00
13867;BME280;7003;46.982;15.248;2023-04-07T02:06:41;97064.88;;;-1.64;100.00
13867;BME280;7003;46.982;15.248;2023-04-07T02:09:10;97069.22;;;-1.43;100.00
13867;BME280;7003;46.982;15.248;2023-04-07T02:11:39;97052.53;;;-1.42;100.00
13867;BME280;7003;46.982;15.248;2023-04-07T02:14:09;97058.66;;;-1.21;100.00
13867;BME280;7003;46.982;15.248;2023-04-07T02:16:38;97052.00;;;-1.44;100.00
13867;BME280;7003;46.982;15.248;2023-04-07T02:19:10;97050.50;;;-1.30;100.00
13867;BME280;7003;46.982;15.248;2023-04-07T02:21:38;97051.09;;;-1.23;100.00
13867;BME280;7003;46.982;15.248;2023-04-07T02:24:07;97052.78;;;-1.43;100.00
13867;BME280;7003;46.982;15.248;2023-04-07T02:26:34;97051.84;;;-1.27;100.00
13867;BME280;7003;46.982;15.248;2023-04-07T02:29:05;97052.47;;;-1.47;100.00
13867;BME280;7003;46.982;15.248;2023-04-07T02:31:32;97053.69;;;-1.23;100.00
13867;BME280;7003;46.982;15.248;2023-04-07T02:34:01;97053.84;;;-1.39;100.00
13867;BME280;7003;46.982;15.248;2023-04-07T02:36:28;97051.22;;;-1.39;100.00
13867;BME280;7003;46.982;15.248;2023-04-07T02:38:56;97053.47;;;-1.16;100.00
13867;BME280;7003;46.982;15.248;2023-04-07T02:41:25;97048.56;;;-1.07;100.00
13867;BME280;7003;46.982;15.248;2023-04-07T02:43:55;97053.75;;;-1.18;100.00
13867;BME280;7003;46.982;15.248;2023-04-07T02:46:22;97047.69;;;-1.23;100.00
13867;BME280;7003;46.982;15.248;2023-04-07T02:48:50;97053.44;;;-1.21;100.00
13867;BME280;7003;46.982;15.248;2023-04-07T02:51:21;97054.22;;;-1.21;100.00
13867;BME280;7003;46.982;15.248;2023-04-07T02:53:50;97054.78;;;-1.13;100.00
13867;BME280;7003;46.982;15.248;2023-04-07T02:56:17;97044.34;;;-1.13;100.00
13867;BME280;7003;46.982;15.248;2023-04-07T02:58:47;97043.78;;;-1.21;100.00
13867;BME280;7003;46.982;15.248;2023-04-07T03:01:14;97038.25;;;-1.29;100.00
13867;BME280;7003;46.982;15.248;2023-04-07T03:03:44;97052.56;;;-1.37;100.00
13867;BME280;7003;46.982;15.248;2023-04-07T03:06:21;97035.47;;;-1.55;100.00
13867;BME280;7003;46.982;15.248;2023-04-07T03:08:55;97044.66;;;-1.47;100.00
13867;BME280;7003;46.982;15.248;2023-04-07T03:11:31;97039.28;;;-1.30;100.00
13867;BME280;7003;46.982;15.248;2023-04-07T03:13:59;97031.19;;;-1.34;100.00
13867;BME280;7003;46.982;15.248;2023-04-07T03:16:32;97032.47;;;-1.36;100.00
13867;BME280;7003;46.982;15.248;2023-04-07T03:19:00;97035.19;;;-1.16;100.00
13867;BME280;7003;46.982;15.248;2023-04-07T03:21:32;97026.84;;;-1.18;100.00
13867;BME280;7003;46.982;15.248;2023-04-07T03:24:07;97020.81;;;-1.24;100.00
13867;BME280;7003;46.982;15.248;2023-04-07T03:26:38;97030.47;;;-1.24;100.00
13867;BME280;7003;46.982;15.248;2023-04-07T03:29:06;97031.31;;;-1.13;100.00
13867;BME280;7003;46.982;15.248;2023-04-07T03:31:34;97029.69;;;-1.25;100.00
13867;BME280;7003;46.982;15.248;2023-04-07T03:34:04;97024.75;;;-1.21;100.00
13867;BME280;7003;46.982;15.248;2023-04-07T03:36:33;97029.53;;;-1.45;100.00
13867;BME280;7003;46.982;15.248;2023-04-07T03:39:00;97029.06;;;-1.37;100.00
13867;BME280;7003;46.982;15.248;2023-04-07T03:41:28;97025.03;;;-1.18;100.00
13867;BME280;7003;46.982;15.248;2023-04-07T03:43:58;97023.38;;;-1.29;100.00
13867;BME280;7003;46.982;15.248;2023-04-07T03:46:25;97014.78;;;-1.29;100.00
13867;BME280;7003;46.982;15.248;2023-04-07T03:48:52;97018.16;;;-1.29;100.00
13867;BME280;7003;46.982;15.248;2023-04-07T03:51:22;97024.50;;;-1.20;100.00
13867;BME280;7003;46.982;15.248;2023-04-07T03:53:53;97023.63;;;-1.35;100.00
13867;BME280;7003;46.982;15.248;2023-04-07T03:56:21;97022.28;;;-1.38;100.00
13867;BME280;7003;46.982;15.248;2023-04-07T03:58:52;97024.97;;;-1.28;100.00
13867;BME280;7003;46.982;15.248;2023-04-07T04:01:22;97023.38;;;-1.34;100.00
13867;BME280;7003;46.982;15.248;2023-04-07T04:03:52;97020.59;;;-1.17;100.00
13867;BME280;7003;46.982;15.248;2023-04-07T04:06:21;97021.63;;;-1.18;100.00
13867;BME280;7003;46.982;15.248;2023-04-07T04:08:49;97021.03;;;-1.30;100.00
13867;BME280;7003;46.982;15.248;2023-04-07T04:11:18;97030.47;;;-1.24;100.00
13867;BME280;7003;46.982;15.248;2023-04-07T04:13:49;97017.91;;;-1.32;100.00
13867;BME280;7003;46.982;15.248;2023-04-07T04:16:16;97017.25;;;-1.49;100.00
13867;BME280;7003;46.982;15.248;2023-04-07T04:18:47;97017.03;;;-1.43;100.00
13867;BME280;7003;46.982;15.248;2023-04-07T04:21:15;97022.25;;;-1.43;100.00
13867;BME280;7003;46.982;15.248;2023-04-07T04:23:45;97019.63;;;-1.48;100.00
13867;BME280;7003;46.982;15.248;2023-04-07T04:26:15;97021.03;;;-1.30;100.00
13867;BME280;7003;46.982;15.248;2023-04-07T04:28:44;97021.25;;;-1.37;100.00
13867;BME280;7003;46.982;15.248;2023-04-07T04:31:16;97028.50;;;-1.44;100.00
13867;BME280;7003;46.982;15.248;2023-04-07T04:33:44;97024.88;;;-1.43;100.00
13867;BME280;7003;46.982;15.248;2023-04-07T04:36:14;97034.91;;;-1.25;100.00
13867;BME280;7003;46.982;15.248;2023-04-07T04:38:42;97030.41;;;-1.34;100.00
13867;BME280;7003;46.982;15.248;2023-04-07T04:41:11;97031.41;;;-1.40;100.00
13867;BME280;7003;46.982;15.248;2023-04-07T04:43:40;97029.84;;;-1.41;100.00
13867;BME280;7003;46.982;15.248;2023-04-07T04:46:11;97039.94;;;-1.55;100.00
13867;BME280;7003;46.982;15.248;2023-04-07T04:48:39;97040.97;;;-1.56;100.00
13867;BME280;7003;46.982;15.248;2023-04-07T04:51:07;97037.91;;;-1.43;100.00
13867;BME280;7003;46.982;15.248;2023-04-07T04:53:38;97030.56;;;-1.46;100.00
13867;BME280;7003;46.982;15.248;2023-04-07T04:56:09;97039.50;;;-1.42;100.00
13867;BME280;7003;46.982;15.248;2023-04-07T04:58:38;97038.00;;;-1.33;100.00
13867;BME280;7003;46.982;15.248;2023-04-07T05:01:17;97040.16;;;-1.14;100.00
13867;BME280;7003;46.982;15.248;2023-04-07T05:03:47;97044.41;;;-1.08;100.00
13867;BME280;7003;46.982;15.248;2023-04-07T05:06:15;97038.09;;;-1.12;100.00
13867;BME280;7003;46.982;15.248;2023-04-07T05:08:46;97040.69;;;-1.18;100.00
13867;BME280;7003;46.982;15.248;2023-04-07T05:11:15;97043.81;;;-1.16;100.00
13867;BME280;7003;46.982;15.248;2023-04-07T05:13:44;97053.44;;;-1.26;100.00
13867;BME280;7003;46.982;15.248;2023-04-07T05:16:15;97046.63;;;-1.27;100.00
13867;BME280;7003;46.982;15.248;2023-04-07T05:18:46;97046.31;;;-1.36;100.00
13867;BME280;7003;46.982;15.248;2023-04-07T05:21:16;97049.56;;;-1.13;100.00
13867;BME280;7003;46.982;15.248;2023-04-07T05:23:46;97048.00;;;-1.14;100.00
13867;BME280;7003;46.982;15.248;2023-04-07T05:26:15;97039.75;;;-0.96;100.00
13867;BME280;7003;46.982;15.248;2023-04-07T05:28:45;97040.06;;;-0.88;100.00
13867;BME280;7003;46.982;15.248;2023-04-07T05:31:16;97043.41;;;-0.97;100.00
13867;BME280;7003;46.982;15.248;2023-04-07T05:33:46;97047.34;;;-0.90;100.00
13867;BME280;7003;46.982;15.248;2023-04-07T05:36:15;97045.47;;;-0.99;100.00
13867;BME280;7003;46.982;15.248;2023-04-07T05:38:45;97043.72;;;-0.84;100.00
13867;BME280;7003;46.982;15.248;2023-04-07T05:41:15;97047.72;;;-0.66;100.00
13867;BME280;7003;46.982;15.248;2023-04-07T05:43:48;97038.41;;;-0.42;100.00
13867;BME280;7003;46.982;15.248;2023-04-07T05:46:22;97041.56;;;-0.40;100.00
13867;BME280;7003;46.982;15.248;2023-04-07T05:48:55;97040.50;;;-0.39;100.00
13867;BME280;7003;46.982;15.248;2023-04-07T05:51:24;97046.50;;;-0.43;100.00
13867;BME280;7003;46.982;15.248;2023-04-07T05:53:55;97048.44;;;0.02;100.00
13867;BME280;7003;46.982;15.248;2023-04-07T05:56:27;97039.56;;;0.23;100.00
13867;BME280;7003;46.982;15.248;2023-04-07T05:58:59;97040.09;;;0.61;100.00
13867;BME280;7003;46.982;15.248;2023-04-07T06:01:31;97040.03;;;0.96;100.00
13867;BME280;7003;46.982;15.248;2023-04-07T06:04:00;97036.78;;;1.35;100.00
13867;BME280;7003;46.982;15.248;2023-04-07T06:06:32;97034.09;;;1.50;100.00
13867;BME280;7003;46.982;15.248;2023-04-07T06:09:02;97034.50;;;1.72;100.00
13867;BME280;7003;46.982;15.248;2023-04-07T06:11:31;97035.66;;;2.00;100.00
13867;BME280;7003;46.982;15.248;2023-04-07T06:14:00;97030.00;;;2.22;100.00
13867;BME280;7003;46.982;15.248;2023-04-07T06:16:30;97028.31;;;2.36;100.00
13867;BME280;7003;46.982;15.248;2023-04-07T06:18:59;97037.13;;;2.50;100.00
13867;BME280;7003;46.982;15.248;2023-04-07T06:21:27;97030.94;;;2.65;100.00
13867;BME280;7003;46.982;15.248;2023-04-07T06:23:56;97034.47;;;2.84;100.00
13867;BME280;7003;46.982;15.248;2023-04-07T06:26:24;97032.03;;;2.88;100.00
13867;BME280;7003;46.982;15.248;2023-04-07T06:28:52;97034.41;;;2.89;100.00
13867;BME280;7003;46.982;15.248;2023-04-07T06:31:20;97030.06;;;3.27;100.00
13867;BME280;7003;46.982;15.248;2023-04-07T06:33:50;97036.00;;;3.57;100.00
13867;BME280;7003;46.982;15.248;2023-04-07T06:36:20;97032.69;;;3.88;100.00
13867;BME280;7003;46.982;15.248;2023-04-07T06:38:51;97030.44;;;3.82;97.92
13867;BME280;7003;46.982;15.248;2023-04-07T06:41:19;97030.72;;;3.99;92.34
13867;BME280;7003;46.982;15.248;2023-04-07T06:43:50;97033.34;;;4.18;84.64
13867;BME280;7003;46.982;15.248;2023-04-07T06:46:18;97032.41;;;4.28;76.24
13867;BME280;7003;46.982;15.248;2023-04-07T06:48:50;97027.41;;;4.26;78.20
13867;BME280;7003;46.982;15.248;2023-04-07T06:51:18;97025.25;;;4.14;74.28
13867;BME280;7003;46.982;15.248;2023-04-07T06:53:46;97028.00;;;4.23;76.27
13867;BME280;7003;46.982;15.248;2023-04-07T06:56:17;97023.59;;;4.18;79.51
13867;BME280;7003;46.982;15.248;2023-04-07T06:58:48;97026.75;;;4.34;78.93
13867;BME280;7003;46.982;15.248;2023-04-07T07:01:16;97022.13;;;4.45;76.00
13867;BME280;7003;46.982;15.248;2023-04-07T07:03:47;97023.59;;;4.51;77.51
13867;BME280;7003;46.982;15.248;2023-04-07T07:06:20;97032.78;;;4.53;81.39
13867;BME280;7003;46.982;15.248;2023-04-07T07:08:48;97038.25;;;4.57;91.93
13867;BME280;7003;46.982;15.248;2023-04-07T07:11:16;97032.78;;;4.53;89.85
13867;BME280;7003;46.982;15.248;2023-04-07T07:13:44;97025.81;;;4.62;81.11
13867;BME280;7003;46.982;15.248;2023-04-07T07:16:15;97028.38;;;4.81;78.33
13867;BME280;7003;46.982;15.248;2023-04-07T07:18:46;97031.63;;;4.92;73.69
13867;BME280;7003;46.982;15.248;2023-04-07T07:21:19;97031.81;;;4.95;73.38
13867;BME280;7003;46.982;15.248;2023-04-07T07:23:47;97024.31;;;5.02;74.18
13867;BME280;7003;46.982;15.248;2023-04-07T07:26:16;97033.28;;;5.29;79.75
13867;BME280;7003;46.982;15.248;2023-04-07T07:28:44;97025.19;;;5.39;78.43
13867;BME280;7003;46.982;15.248;2023-04-07T07:31:12;97028.78;;;5.43;75.94
13867;BME280;7003;46.982;15.248;2023-04-07T07:33:41;97026.16;;;5.57;71.72
13867;BME280;7003;46.982;15.248;2023-04-07T07:36:11;97025.34;;;5.70;69.09
13867;BME280;7003;46.982;15.248;2023-04-07T07:38:41;97024.75;;;5.87;65.30
13867;BME280;7003;46.982;15.248;2023-04-07T07:41:11;97030.31;;;5.99;68.03
13867;BME280;7003;46.982;15.248;2023-04-07T07:43:42;97026.69;;;6.31;67.84
13867;BME280;7003;46.982;15.248;2023-04-07T07:46:10;97026.91;;;6.21;66.61
13867;BME280;7003;46.982;15.248;2023-04-07T07:48:41;97025.19;;;6.38;71.75
13867;BME280;7003;46.982;15.248;2023-04-07T07:51:09;97032.63;;;6.58;68.14
13867;BME280;7003;46.982;15.248;2023-04-07T07:53:37;97032.56;;;6.72;64.93
13867;BME280;7003;46.982;15.248;2023-04-07T07:56:10;97019.59;;;6.62;58.45
13867;BME280;7003;46.982;15.248;2023-04-07T07:58:38;97022.09;;;6.98;57.98
13867;BME280;7003;46.982;15.248;2023-04-07T08:01:09;97017.16;;;7.05;57.29
13867;BME280;7003;46.982;15.248;2023-04-07T08:03:39;97026.25;;;7.21;59.56
13867;BME280;7003;46.982;15.248;2023-04-07T08:06:10;97019.75;;;7.36;56.13
13867;BME280;7003;46.982;15.248;2023-04-07T08:08:38;97022.75;;;7.52;56.93
13867;BME280;7003;46.982;15.248;2023-04-07T08:11:10;97018.19;;;8.00;59.70
13867;BME280;7003;46.982;15.248;2023-04-07T08:13:38;97021.75;;;8.22;58.39
13867;BME280;7003;46.982;15.248;2023-04-07T08:16:10;97014.16;;;8.46;54.34
13867;BME280;7003;46.982;15.248;2023-04-07T08:18:38;97020.75;;;9.04;55.88
13867;BME280;7003;46.982;15.248;2023-04-07T08:21:09;97014.50;;;9.00;53.09
13867;BME280;7003;46.982;15.248;2023-04-07T08:23:40;97008.25;;;9.04;51.87
13867;BME280;7003;46.982;15.248;2023-04-07T08:26:10;97007.50;;;9.33;48.72
13867;BME280;7003;46.982;15.248;2023-04-07T08:28:40;97004.69;;;9.30;46.48
13867;BME280;7003;46.982;15.248;2023-04-07T08:31:08;97000.56;;;9.11;48.14
13867;BME280;7003;46.982;15.248;2023-04-07T08:33:39;96994.78;;;9.47;47.02
13867;BME280;7003;46.982;15.248;2023-04-07T08:36:07;96995.25;;;9.70;46.28
13867;BME280;7003;46.982;15.248;2023-04-07T08:38:39;96987.19;;;9.87;43.37
13867;BME280;7003;46.982;15.248;2023-04-07T08:41:11;96995.88;;;9.96;42.52
13867;BME280;7003;46.982;15.248;2023-04-07T08:43:41;96991.91;;;10.02;43.63
13867;BME280;7003;46.982;15.248;2023-04-07T08:46:15;96991.84;;;10.11;40.84
13867;BME280;7003;46.982;15.248;2023-04-07T08:48:50;96983.78;;;10.28;41.32
13867;BME280;7003;46.982;15.248;2023-04-07T08:51:26;96980.44;;;10.31;39.31
13867;BME280;7003;46.982;15.248;2023-04-07T08:54:02;96988.41;;;10.31;40.56
13867;BME280;7003;46.982;15.248;2023-04-07T08:56:34;96981.22;;;10.32;38.50
13867;BME280;7003;46.982;15.248;2023-04-07T08:59:05;96978.25;;;10.33;39.83
13867;BME280;7003;46.982;15.248;2023-04-07T09:01:36;96972.28;;;9.95;37.26
13867;BME280;7003;46.982;15.248;2023-04-07T09:04:04;96977.00;;;9.69;38.74
13867;BME280;7003;46.982;15.248;2023-04-07T09:06:34;96975.69;;;9.54;40.27
13867;BME280;7003;46.982;15.248;2023-04-07T09:09:05;96978.38;;;9.75;40.03
13867;BME280;7003;46.982;15.248;2023-04-07T09:11:37;96974.88;;;9.83;37.94
13867;BME280;7003;46.982;15.248;2023-04-07T09:14:05;96973.06;;;9.75;39.83
13867;BME280;7003;46.982;15.248;2023-04-07T09:16:33;96980.84;;;9.80;40.05
13867;BME280;7003;46.982;15.248;2023-04-07T09:19:02;96966.06;;;9.70;40.27
13867;BME280;7003;46.982;15.248;2023-04-07T09:21:46;96974.38;;;9.39;41.99
13867;BME280;7003;46.982;15.248;2023-04-07T09:24:21;96966.88;;;9.41;38.11
13867;BME280;7003;46.982;15.248;2023-04-07T09:26:51;96969.47;;;9.71;41.69
13867;BME280;7003;46.982;15.248;2023-04-07T09:29:35;96966.06;;;9.91;39.59
13867;BME280;7003;46.982;15.248;2023-04-07T09:32:03;96956.94;;;9.80;38.27
13867;BME280;7003;46.982;15.248;2023-04-07T09:34:33;96955.88;;;10.14;40.13
13867;BME280;7003;46.982;15.248;2023-04-07T09:37:04;96951.41;;;10.59;39.56
13867;BME280;7003;46.982;15.248;2023-04-07T09:39:47;96956.03;;;10.17;35.27
13867;BME280;7003;46.982;15.248;2023-04-07T09:42:19;96953.25;;;10.47;34.99
13867;BME280;7003;46.982;15.248;2023-04-07T09:44:47;96951.06;;;10.61;37.78
13867;BME280;7003;46.982;15.248;2023-04-07T09:47:16;96949.94;;;10.50;35.83
13867;BME280;7003;46.982;15.248;2023-04-07T09:49:50;96954.09;;;10.38;36.38
13867;BME280;7003;46.982;15.248;2023-04-07T09:52:24;96952.06;;;10.23;33.89
13867;BME280;7003;46.982;15.248;2023-04-07T09:54:54;96953.47;;;10.41;35.84
13867;BME280;7003;46.982;15.248;2023-04-07T09:57:24;96943.75;;;10.70;36.34
13867;BME280;7003;46.982;15.248;2023-04-07T09:59:53;96942.88;;;10.66;36.49
13867;BME280;7003;46.982;15.248;2023-04-07T10:02:21;96942.09;;;10.65;36.76
13867;BME280;7003;46.982;15.248;2023-04-07T10:04:51;96944.25;;;11.08;35.07
13867;BME280;7003;46.982;15.248;2023-04-07T10:07:22;96941.13;;;10.82;33.87
13867;BME280;7003;46.982;15.248;2023-04-07T10:09:50;96930.53;;;11.06;33.74
13867;BME280;7003;46.982;15.248;2023-04-07T10:12:18;96938.94;;;11.21;33.82
13867;BME280;7003;46.982;15.248;2023-04-07T10:14:48;96921.59;;;11.39;33.09
13867;BME280;7003;46.982;15.248;2023-04-07T10:17:17;96927.13;;;11.82;33.22
13867;BME280;7003;46.982;15.248;2023-04-07T10:19:47;96926.03;;;11.59;33.05
13867;BME280;7003;46.982;15.248;2023-04-07T10:22:16;96924.09;;;11.72;32.46
13867;BME280;7003;46.982;15.248;2023-04-07T10:24:50;96927.41;;;12.21;33.81
13867;BME280;7003;46.982;15.248;2023-04-07T10:27:26;96917.75;;;12.44;32.14
13867;BME280;7003;46.982;15.248;2023-04-07T10:29:57;96921.13;;;13.04;33.33
13867;BME280;7003;46.982;15.248;2023-04-07T10:32:28;96916.22;;;12.15;31.92
13867;BME280;7003;46.982;15.248;2023-04-07T10:34:58;96910.72;;;11.96;34.06
13867;BME280;7003;46.982;15.248;2023-04-07T10:37:26;96913.09;;;12.57;33.85
13867;BME280;7003;46.982;15.248;2023-04-07T10:40:28;96905.69;;;12.34;31.75
13867;BME280;7003;46.982;15.248;2023-04-07T10:42:57;96905.53;;;12.43;29.39
13867;BME280;7003;46.982;15.248;2023-04-07T10:45:55;96905.13;;;12.88;30.80
13867;BME280;7003;46.982;15.248;2023-04-07T10:48:26;96901.28;;;13.36;30.21
13867;BME280;7003;46.982;15.248;2023-04-07T10:51:13;96895.28;;;13.59;31.62
13867;BME280;7003;46.982;15.248;2023-04-07T10:54:18;96890.25;;;14.76;29.86
13867;BME280;7003;46.982;15.248;2023-04-07T10:57:11;96884.75;;;14.04;28.43
13867;BME280;7003;46.982;15.248;2023-04-07T10:59:41;96887.56;;;13.73;28.38
13867;BME280;7003;46.982;15.248;2023-04-07T11:02:36;96885.44;;;14.40;29.00
13867;BME280;7003;46.982;15.248;2023-04-07T11:05:05;96873.00;;;15.23;28.77
13867;BME280;7003;46.982;15.248;2023-04-07T11:07:53;96876.59;;;15.34;26.92
13867;BME280;7003;46.982;15.248;2023-04-07T11:10:24;96870.13;;;15.65;29.25
13867;BME280;7003;46.982;15.248;2023-04-07T11:13:00;96862.72;;;15.25;25.71
13867;BME280;7003;46.982;15.248;2023-04-07T11:15:29;96865.06;;;15.03;26.55
13867;BME280;7003;46.982;15.248;2023-04-07T11:18:13;96859.97;;;15.51;27.26
13867;BME280;7003;46.982;15.248;2023-04-07T11:20:46;96860.03;;;16.18;25.21
13867;BME280;7003;46.982;15.248;2023-04-07T11:23:19;96861.19;;;13.71;26.30
13867;BME280;7003;46.982;15.248;2023-04-07T11:25:50;96854.63;;;14.72;25.88
13867;BME280;7003;46.982;15.248;2023-04-07T11:28:21;96855.47;;;14.34;25.75
13867;BME280;7003;46.982;15.248;2023-04-07T11:30:52;96849.41;;;15.06;27.90
13867;BME280;7003;46.982;15.248;2023-04-07T11:33:27;96850.16;;;15.59;25.69
13867;BME280;7003;46.982;15.248;2023-04-07T11:35:58;96846.22;;;16.16;25.55
13867;BME280;7003;46.982;15.248;2023-04-07T11:38:28;96853.16;;;15.54;25.65
13867;BME280;7003;46.982;15.248;2023-04-07T11:41:08;96846.75;;;15.95;26.16
13867;BME280;7003;46.982;15.248;2023-04-07T11:43:36;96845.44;;;15.78;27.76
13867;BME280;7003;46.982;15.248;2023-04-07T11:46:08;96844.47;;;16.75;26.58
13867;BME280;7003;46.982;15.248;2023-04-07T11:48:39;96839.97;;;16.89;23.44
13867;BME280;7003;46.982;15.248;2023-04-07T11:51:15;96830.97;;;16.64;25.37
13867;BME280;7003;46.982;15.248;2023-04-07T11:53:46;96830.63;;;16.29;24.75
13867;BME280;7003;46.982;15.248;2023-04-07T11:56:20;96833.88;;;15.74;25.62
13867;BME280;7003;46.982;15.248;2023-04-07T11:58:49;96825.50;;;15.50;25.87
13867;BME280;7003;46.982;15.248;2023-04-07T12:01:17;96814.00;;;15.19;24.64
13867;BME280;7003;46.982;15.248;2023-04-07T12:03:58;96815.66;;;16.28;25.27
13867;BME280;7003;46.982;15.248;2023-04-07T12:06:27;96811.13;;;16.79;28.50
13867;BME280;7003;46.982;15.248;2023-04-07T12:08:57;96811.97;;;16.87;26.37
13867;BME280;7003;46.982;15.248;2023-04-07T12:11:25;96810.19;;;16.17;24.62
13867;BME280;7003;46.982;15.248;2023-04-07T12:13:54;96817.94;;;15.89;26.55
13867;BME280;7003;46.982;15.248;2023-04-07T12:16:25;96811.97;;;15.39;25.71
13867;BME280;7003;46.982;15.248;2023-04-07T12:18:54;96806.63;;;15.39;27.50
13867;BME280;7003;46.982;15.248;2023-04-07T12:21:23;96800.94;;;17.03;27.03
13867;BME280;7003;46.982;15.248;2023-04-07T12:23:52;96797.22;;;16.63;24.33
13867;BME280;7003;46.982;15.248;2023-04-07T12:26:20;96795.09;;;16.02;25.51
13867;BME280;7003;46.982;15.248;2023-04-07T12:28:48;96792.31;;;16.32;25.78
13867;BME280;7003;46.982;15.248;2023-04-07T12:31:16;96787.47;;;16.48;24.26
13867;BME280;7003;46.982;15.248;2023-04-07T12:33:44;96781.66;;;17.66;24.61
13867;BME280;7003;46.982;15.248;2023-04-07T12:36:13;96777.84;;;17.74;23.37
13867;BME280;7003;46.982;15.248;2023-04-07T12:38:45;96780.25;;;18.11;23.65
13867;BME280;7003;46.982;15.248;2023-04-07T12:41:13;96772.59;;;18.59;25.27
13867;BME280;7003;46.982;15.248;2023-04-07T12:43:41;96776.41;;;18.90;25.06
13867;BME280;7003;46.982;15.248;2023-04-07T12:46:09;96774.91;;;18.78;22.84
13867;BME280;7003;46.982;15.248;2023-04-07T12:48:39;96777.13;;;19.19;22.44
13867;BME280;7003;46.982;15.248;2023-04-07T12:51:07;96777.97;;;18.80;22.39
13867;BME280;7003;46.982;15.248;2023-04-07T12:53:35;96777.31;;;17.44;23.02
13867;BME280;7003;46.982;15.248;2023-04-07T12:56:07;96769.50;;;18.36;23.58
13867;BME280;7003;46.982;15.248;2023-04-07T12:58:37;96774.63;;;17.44;24.25
13867;BME280;7003;46.982;15.248;2023-04-07T13:01:05;96771.75;;;17.98;24.21
13867;BME280;7003;46.982;15.248;2023-04-07T13:03:36;96766.78;;;18.36;24.66
13867;BME280;7003;46.982;15.248;2023-04-07T13:06:05;96773.25;;;17.82;25.12
13867;BME280;7003;46.982;15.248;2023-04-07T13:08:36;96767.09;;;17.81;24.40
13867;BME280;7003;46.982;15.248;2023-04-07T13:11:04;96771.63;;;17.56;24.55
13867;BME280;7003;46.982;15.248;2023-04-07T13:13:34;96764.72;;;15.91;23.78
13867;BME280;7003;46.982;15.248;2023-04-07T13:16:02;96768.16;;;15.91;24.47
13867;BME280;7003;46.982;15.248;2023-04-07T13:18:30;96758.00;;;16.11;25.13